Dushan, China
Current Conditions -  °F | °C
As of 10:00 PM on Thursday 30 Oct 2014 (Local Time) from ZUGY Reporting Station
Broken Clouds Broken Clouds  
Wind Chill: 70°   Ceiling: 2600
Heat Index: 70°   Visibility: 6mi
Dew Point: 63°   Wind: 4mph
Humidity: 78%   Direction: 160°SSE
Pressure: 30"   Gusts: NA
Location:  25.83°N, 107.55°E
Report Text: ZUGY 301400Z 16002MPS 140V200 9999 BKN026 21/17 Q1016 NOSIG
Loading
Personal Weather Stations






























Interactive Weather Map
Tropical Storm Tracking
New forecast layout! Learn more

10-Day Weather Forecast

Advertisements
Track Severe Weather on mobile